Date,TemperatureHighF,TemperatureAvgF,TemperatureLowF,DewpointHighF,DewpointAvgF,DewpointLowF,HumidityHigh,HumidityAvg,HumidityLow,PressureMaxIn,PressureMinIn,WindSpeedMaxMPH,WindSpeedAvgMPH,GustSpeedMaxMPH,PrecipitationSumIn
2013-1-1,36,30,14,28,18,6,78,64,49,29.91,29.68,7,2,20,0.01
2013-1-2,29,16,3,17,8,-1,89,69,53,30.09,29.88,5,1,19,0.00
2013-1-3,24,12,-1,10,2,-6,83,65,34,30.12,29.96,3,1,13,0.00
2013-1-4,37,26,9,26,19,6,92,75,60,29.96,29.78,8,2,20,0.01
2013-1-5,41,32,18,27,22,15,89,68,47,30.23,29.81,6,1,15,0.14
2013-1-6,41,30,19,30,25,16,100,83,64,30.19,29.91,5,1,15,0.01
2013-1-7,38,29,15,30,22,12,95,77,44,30.37,29.93,3,1,11,0.00
2013-1-8,43,29,13,30,23,10,95,78,55,30.34,30.24,7,2,18,0.00
2013-1-9,43,32,18,36,27,16,95,82,57,30.38,29.97,5,1,16,0.01
2013-1-10,46,39,28,31,26,24,86,61,47,30.51,30.00,6,2,18,0.00
2013-1-11,38,30,22,32,26,20,95,86,68,30.51,30.19,1,0,3,0.08
2013-1-12,41,35,33,40,34,32,97,96,95,30.19,30.09,2,0,3,0.02
2013-1-13,48,39,34,47,39,33,100,99,97,30.12,29.96,6,0,13,0.00
2013-1-14,58,45,36,51,41,30,100,85,51,30.23,29.84,4,1,12,0.00
2013-1-15,41,35,28,31,28,25,92,76,57,30.30,30.20,2,0,7,0.00
2013-1-16,33,31,29,32,29,26,96,93,88,30.22,29.79,1,0,4,0.01
2013-1-17,42,32,25,36,26,14,97,80,55,30.07,29.79,4,1,11,0.32
2013-1-18,28,21,14,16,6,0,72,52,37,30.41,30.03,5,1,18,0.00
2013-1-19,46,34,20,31,23,9,79,62,48,30.34,29.83,10,4,26,0.00
2013-1-20,50,38,27,33,26,12,84,62,39,29.90,29.50,13,4,32,0.00
2013-1-21,27,23,17,20,13,8,91,66,48,30.06,29.77,5,1,13,0.00
2013-1-22,24,18,10,19,8,0,91,67,43,30.05,29.74,5,1,18,0.00
2013-1-23,16,10,4,1,-5,-8,71,51,36,30.12,30.04,5,2,17,0.00
2013-1-24,20,10,1,-2,-6,-10,65,49,34,30.22,30.05,5,2,18,0.00
2013-1-25,24,15,7,11,-3,-8,76,45,31,30.29,30.03,4,1,14,0.00
2013-1-26,24,16,5,12,4,-3,88,61,36,30.22,29.98,4,1,19,0.00
2013-1-27,30,18,7,7,4,1,79,56,32,30.45,30.21,4,1,17,0.00
2013-1-28,29,22,12,24,14,6,93,73,51,30.43,30.03,5,0,9,0.00
2013-1-30,54,37,32,54,36,32,100,97,96,30.01,29.58,7,1,16,0.04
2013-1-31,59,44,29,59,37,18,100,76,45,29.56,28.91,17,6,40,0.47
2013-2-1,32,28,21,19,13,6,67,52,40,30.06,29.55,6,3,19,0.00
2013-2-2,29,23,15,16,9,5,67,54,44,30.21,30.01,8,2,20,0.00
2013-2-3,27,24,17,22,19,14,91,83,68,30.03,29.70,2,0,9,0.00
2013-2-4,29,23,19,20,12,7,91,63,43,29.92,29.70,6,2,22,0.00
2013-2-5,30,24,18,21,14,8,86,66,54,30.00,29.90,4,1,8,0.00
2013-2-6,37,28,21,26,18,7,93,69,44,30.27,29.89,5,1,13,0.00
2013-2-7,29,22,11,12,7,2,83,52,37,30.50,30.27,4,1,10,0.00
2013-2-8,24,21,17,20,16,4,93,80,41,30.47,29.67,6,2,22,0.00
2013-2-9,22,18,11,20,16,9,100,93,90,30.20,29.63,6,3,23,0.01
2013-2-10,34,15,-6,32,13,-9,96,91,85,30.37,30.20,4,0,9,0.00
2013-2-11,32,24,6,32,23,4,100,96,89,30.33,29.59,1,0,4,0.00
2013-2-12,43,36,32,39,31,26,100,83,60,29.85,29.59,6,2,21,0.02
2013-2-13,42,32,22,28,25,19,92,75,56,29.83,29.68,5,1,10,0.00
2013-2-14,43,32,22,27,24,19,89,72,47,29.95,29.67,4,1,9,0.00
2013-2-15,50,34,20,34,27,18,97,77,51,29.96,29.86,9,2,19,0.00
2013-2-16,39,34,28,33,28,18,95,79,60,29.93,29.71,3,1,11,0.07
2013-2-17,28,21,16,19,10,2,88,62,48,29.71,29.40,6,4,26,0.00
2013-2-18,31,22,13,7,3,1,59,46,30,30.13,29.68,6,3,21,0.00
2013-2-19,44,31,17,36,24,6,96,74,52,30.15,29.55,9,1,16,0.16
2013-2-20,36,31,25,35,21,13,97,67,49,29.75,29.51,6,3,19,0.00
2013-2-21,33,27,22,17,15,12,78,61,49,30.20,29.74,5,3,19,0.00
2013-2-22,38,30,16,26,21,14,92,72,52,30.37,30.19,4,1,14,0.00
2013-2-23,36,34,27,33,30,23,96,86,78,30.31,29.89,3,1,8,0.01
2013-2-24,35,33,32,34,32,30,97,96,95,29.89,29.69,3,0,12,0.32
2013-2-25,41,32,21,36,30,20,100,93,80,30.21,29.88,2,0,6,0.04
2013-2-26,41,34,25,38,30,24,97,84,68,30.31,30.14,3,0,11,0.00
2013-2-27,40,36,33,39,34,29,100,94,85,30.14,29.57,5,2,22,0.48
2013-2-28,44,36,30,39,34,29,100,92,80,29.61,29.51,2,0,7,0.00
2013-3-1,43,35,28,36,30,27,100,81,64,29.67,29.51,4,1,19,0.00
2013-3-2,41,36,27,31,28,25,92,75,65,29.66,29.60,3,1,10,0.00
2013-3-3,39,34,31,32,28,25,89,79,70,29.62,29.54,4,1,9,0.00
2013-3-4,39,33,28,27,25,21,80,71,58,29.74,29.57,5,2,17,0.00
2013-3-5,44,36,28,32,27,23,95,73,56,30.05,29.74,4,1,11,0.01
2013-3-6,38,34,31,35,33,30,97,93,82,30.09,30.02,8,3,22,0.11
2013-3-7,34,32,30,33,30,28,97,94,87,30.08,29.99,5,2,23,0.00
2013-3-8,38,32,30,36,30,26,97,92,77,30.15,29.94,3,1,14,0.06
2013-3-9,52,36,21,31,24,18,95,68,30,30.34,30.13,5,1,14,0.27
2013-3-10,44,32,18,36,28,17,97,83,63,30.39,30.27,4,1,8,0.00
2013-3-11,48,40,30,39,34,28,100,81,60,30.29,30.11,8,2,16,0.00
2013-3-12,49,43,36,48,42,34,100,96,90,30.11,29.68,6,2,18,0.21
2013-3-13,50,40,29,46,31,23,100,73,40,29.76,29.68,5,1,18,0.00
2013-3-14,34,30,22,26,17,9,83,59,47,29.82,29.69,5,2,27,0.00
2013-3-15,39,29,18,30,16,8,89,60,35,29.85,29.61,7,2,18,0.00
2013-3-16,38,32,26,28,18,12,82,58,38,29.86,29.66,4,1,12,0.00
2013-3-17,37,28,19,19,14,7,94,58,34,30.29,29.86,5,1,16,0.00
2013-3-18,36,27,14,26,13,4,91,57,32,30.44,30.21,6,1,12,0.00
2013-3-19,34,31,27,33,30,26,96,95,91,30.21,29.63,4,1,14,0.10
2013-3-20,37,29,20,27,23,18,95,77,54,29.79,29.69,5,2,19,0.16
2013-3-21,38,27,15,26,20,13,95,75,46,29.79,29.58,4,1,7,0.12
2013-3-22,40,32,24,24,21,17,90,64,47,29.73,29.59,4,2,16,0.00
2013-3-23,43,34,25,25,22,20,83,61,43,29.77,29.62,6,2,21,0.00
2013-3-24,45,37,30,29,25,22,85,62,47,29.79,29.70,5,2,15,0.00
2013-3-25,43,36,27,32,28,24,89,75,62,29.75,29.50,6,2,18,0.00
2013-3-26,48,39,31,32,27,23,83,64,39,29.76,29.53,4,1,11,0.00
2013-3-27,54,41,27,32,27,23,92,61,37,29.86,29.72,4,1,13,0.00
2013-3-28,49,42,35,36,33,31,94,74,49,30.00,29.85,4,1,14,0.00
2013-3-29,57,43,29,38,33,27,95,69,40,30.03,29.95,4,1,12,0.00
2013-3-30,56,44,31,34,28,22,90,58,27,30.08,29.98,4,1,12,0.00
2013-3-31,56,41,25,41,30,22,93,68,33,30.09,29.70,11,3,21,0.06
2013-4-1,58,45,33,46,36,15,97,74,41,29.77,29.47,9,2,27,0.24
2013-4-2,38,34,29,21,16,13,63,49,37,29.92,29.77,7,3,31,0.00
2013-4-3,45,36,29,20,17,14,61,46,30,30.14,29.90,7,3,21,0.00
2013-4-4,54,41,28,27,21,16,69,46,27,30.27,30.00,7,3,17,0.00
2013-4-5,60,46,37,32,29,24,78,53,27,30.01,29.61,5,3,14,0.00
2013-4-6,45,37,28,27,16,10,66,45,25,30.31,29.86,5,2,18,0.00
2013-4-7,53,40,24,41,29,18,85,66,40,30.31,29.96,15,5,25,0.00
2013-4-8,64,51,38,44,40,35,96,69,39,30.06,29.92,4,1,13,0.00
2013-4-9,68,56,45,53,46,41,94,72,49,30.04,29.84,7,2,19,0.01
2013-4-10,62,52,46,53,48,44,96,86,68,30.00,29.82,3,1,7,0.28
2013-4-11,52,47,39,48,38,27,97,75,43,30.12,29.81,5,1,14,0.06
2013-4-12,39,36,34,37,35,32,97,93,82,30.15,29.79,6,2,15,0.50
2013-4-13,52,43,34,41,37,34,97,81,57,29.92,29.75,4,1,12,0.10
2013-4-14,51,44,33,41,34,29,94,70,46,30.20,29.89,5,1,15,0.00
2013-4-15,57,44,29,42,35,27,95,71,46,30.36,30.20,5,1,10,0.00
2013-4-16,65,52,38,53,44,34,93,76,54,30.36,30.02,13,6,26,0.00
2013-4-17,66,57,42,54,40,33,88,57,31,30.32,30.03,5,2,19,0.00
2013-4-18,60,49,33,46,38,31,95,67,44,30.41,30.11,10,4,19,0.00
2013-4-19,72,62,53,63,58,46,100,86,69,30.11,29.60,13,6,24,0.00
2013-4-20,67,52,42,64,41,25,97,69,42,30.20,29.57,9,2,21,0.38
2013-4-21,53,42,30,30,25,21,80,53,30,30.66,30.20,5,2,18,0.00
2013-4-22,52,41,29,37,31,23,94,70,36,30.73,30.58,7,2,20,0.00
2013-4-23,41,39,36,40,36,31,97,91,77,30.58,30.11,4,2,13,0.01
2013-4-24,73,56,40,53,46,40,97,73,34,30.11,29.74,9,3,18,0.00
2013-4-25,62,54,39,52,39,30,91,61,31,30.25,29.79,7,2,19,0.05
2013-4-26,60,48,31,42,36,29,95,65,41,30.40,30.25,5,1,13,0.00
2013-4-27,65,52,33,46,39,31,96,65,38,30.40,30.24,9,2,14,0.00
2013-4-28,70,55,36,48,41,34,96,62,36,30.31,30.16,7,2,14,0.00
2013-4-29,68,58,44,51,41,29,87,57,35,30.23,30.14,8,3,15,0.00
2013-4-30,70,58,45,47,36,30,79,47,27,30.33,30.22,6,1,13,0.00
2013-5-1,71,54,35,47,38,32,95,59,31,30.44,30.33,6,1,15,0.00
2013-5-2,78,58,43,53,44,37,90,62,29,30.47,30.29,7,2,19,0.00
2013-5-3,62,51,39,49,43,37,93,74,56,30.51,30.36,5,2,15,0.00
2013-5-4,63,51,39,49,40,25,100,70,28,30.36,30.26,5,2,14,0.00
2013-5-5,64,49,32,48,40,30,100,72,45,30.31,30.21,7,1,12,0.00
2013-5-6,74,54,33,55,43,32,100,71,28,30.25,30.09,4,1,10,0.00
2013-5-7,78,63,42,63,52,41,100,72,42,30.14,30.04,7,2,15,0.00
2013-5-8,71,62,51,65,59,49,100,89,73,30.17,30.01,8,1,23,0.09
2013-5-9,68,61,56,62,59,55,100,95,74,30.01,29.86,4,0,7,0.28
2013-5-10,78,65,49,63,57,49,100,78,48,29.93,29.85,6,1,11,0.00
2013-5-11,68,64,60,63,61,57,100,89,76,29.87,29.66,9,4,19,0.11
2013-5-12,70,60,47,63,52,34,100,77,43,29.79,29.54,6,1,20,0.02
2013-5-13,56,48,41,38,34,30,83,58,42,30.02,29.79,5,2,16,0.00
2013-5-14,59,49,38,38,34,31,84,59,39,30.03,29.96,4,1,13,0.00
2013-5-15,63,51,34,54,43,32,97,78,40,30.03,29.65,10,3,20,0.06
2013-5-16,79,66,48,53,46,38,94,54,28,29.79,29.61,6,2,20,0.00
2013-5-17,68,58,44,47,44,39,93,62,37,30.20,29.79,5,1,18,0.00
2013-5-18,73,59,39,52,45,37,100,64,35,30.28,30.18,4,1,12,0.00
2013-5-19,68,57,46,58,52,44,97,84,57,30.33,30.18,6,2,13,0.05
2013-5-20,81,68,56,68,62,56,100,84,61,30.18,29.89,4,1,14,0.05
2013-5-21,82,64,51,72,60,49,100,88,70,30.07,29.82,4,1,15,0.00
2013-5-22,72,58,51,66,57,50,100,95,80,30.07,29.84,6,1,10,0.74
2013-5-23,74,63,54,71,62,54,100,96,85,29.91,29.76,10,2,20,0.79
2013-5-24,71,63,48,67,60,47,100,92,74,29.82,29.61,7,2,14,1.62
2013-5-25,50,46,41,49,46,39,100,96,91,29.81,29.71,3,1,12,0.42
2013-5-26,57,48,40,44,41,38,94,77,56,30.09,29.71,5,2,21,0.03
2013-5-27,71,56,39,49,43,37,96,65,32,30.16,30.05,4,1,13,0.00
2013-5-28,74,58,40,55,47,39,100,71,37,30.22,30.12,4,1,10,0.00
2013-5-29,69,62,54,66,61,52,100,95,87,30.16,29.96,6,1,10,0.77
2013-5-30,87,74,60,71,67,59,100,81,54,30.06,29.98,4,1,18,0.01
2013-5-31,93,78,62,74,68,61,100,73,44,30.06,29.90,4,1,14,0.01
2013-6-1,91,80,65,73,68,64,100,71,42,29.94,29.82,6,2,17,0.00
2013-6-2,88,79,70,73,70,65,97,75,46,29.84,29.67,12,4,21,0.01
2013-6-3,78,69,57,70,63,47,100,84,59,29.82,29.73,5,1,11,0.31
2013-6-4,70,61,50,52,48,42,90,64,46,30.09,29.82,3,1,13,0.00
2013-6-5,74,62,46,56,50,45,100,70,39,30.18,30.06,4,0,11,0.00
2013-6-6,72,63,52,58,54,50,96,73,53,30.17,30.07,7,2,17,0.03
2013-6-7,58,55,52,56,54,52,100,98,93,30.09,29.82,3,1,10,1.26
2013-6-8,77,63,52,66,58,52,100,87,66,29.99,29.63,3,1,12,0.77
2013-6-9,78,67,55,62,58,54,100,76,49,30.15,29.99,3,0,13,0.00
2013-6-10,69,62,54,63,59,53,100,90,73,30.18,29.99,3,0,7,0.67
2013-6-11,61,58,55,59,57,55,100,97,90,29.99,29.57,2,1,9,0.72
2013-6-12,69,62,56,59,56,54,100,83,64,29.80,29.54,5,1,19,0.08
2013-6-13,65,56,50,59,54,49,100,93,78,29.80,29.68,4,1,9,0.73
2013-6-14,73,60,51,62,55,50,100,86,52,29.76,29.64,3,0,11,0.58
2013-6-15,78,66,52,57,52,46,94,66,34,29.92,29.76,3,1,12,0.00
2013-6-16,74,66,55,64,57,50,92,72,52,29.92,29.68,6,1,13,0.00
2013-6-17,82,69,60,70,62,58,97,81,51,29.88,29.75,6,1,22,0.77
2013-6-18,71,62,56,66,61,56,100,95,79,29.93,29.86,4,0,11,0.47
2013-6-19,74,63,52,58,55,49,100,78,45,30.13,29.90,2,0,9,0.01
2013-6-20,78,64,47,60,54,46,100,73,43,30.25,30.13,5,0,11,0.00
2013-6-21,84,70,55,66,60,53,100,73,39,30.22,30.16,3,0,11,0.00
2013-6-22,83,72,60,70,64,60,100,76,53,30.20,30.07,7,2,14,0.00
2013-6-23,89,78,65,75,69,61,93,74,62,30.12,29.95,7,2,15,0.00
2013-6-24,92,82,70,77,73,68,100,76,56,29.99,29.84,4,0,8,0.00
2013-7-21,79,73,68,71,68,66,94,84,73,29.97,29.90,0,0,0,0.00
2013-7-22,82,71,63,74,68,62,100,89,69,30.01,29.87,0,0,0,0.00
2013-7-23,81,70,68,76,69,67,100,97,86,29.87,29.51,0,0,0,20.12
2013-7-24,83,71,69,75,70,69,100,98,69,29.67,29.56,0,0,0,0.00
2013-9-1,79,76,70,75,74,70,100,93,86,29.85,29.81,0,0,0,0.01
2013-9-2,78,74,72,76,74,72,100,98,93,29.84,29.68,0,0,0,0.31
2013-9-3,81,72,64,73,68,59,100,88,72,29.79,29.67,0,0,0,0.00
2013-9-4,80,68,59,64,59,57,100,76,49,29.91,29.79,0,0,0,0.01
2013-9-5,70,61,49,63,54,46,100,81,49,30.15,29.84,0,0,0,0.02
2013-9-6,68,55,41,52,46,40,100,73,42,30.24,30.08,0,0,0,0.00
2013-9-7,78,62,45,61,54,44,100,76,48,30.09,29.84,0,0,4,0.00
2013-9-8,74,63,46,64,54,43,100,75,47,30.10,29.74,5,1,16,0.02
2013-9-9,68,56,40,55,47,38,100,74,47,30.23,30.09,6,1,12,0.00
2013-9-10,76,67,57,71,64,52,97,91,82,30.13,30.01,7,1,14,0.08
2013-9-11,86,72,68,78,71,67,100,97,73,30.05,30.01,0,0,0,0.01
2013-10-5,65,62,61,61,60,59,96,92,87,30.11,30.06,0,0,1,0.02
2013-10-6,61,55,52,60,55,52,100,99,96,30.22,30.10,2,0,10,0.38
2013-10-7,74,69,58,71,67,56,100,92,83,29.89,29.77,14,6,23,25.53
2013-10-8,66,55,43,56,48,41,100,79,50,30.37,29.88,4,0,11,0.00
2013-10-9,62,48,37,49,43,36,100,84,58,30.47,30.36,3,0,9,0.01
2013-10-10,59,48,38,52,46,37,100,91,68,30.36,30.18,1,0,7,0.00
2013-10-11,70,55,44,55,47,38,100,79,32,30.18,30.08,2,0,10,0.01
2013-10-12,56,51,44,56,50,42,100,97,93,30.39,30.14,2,0,9,0.01
2013-10-13,58,50,40,52,48,38,100,91,78,30.44,30.37,2,0,9,0.01
2013-10-14,57,36,34,54,36,33,100,97,83,30.40,30.33,1,0,5,0.01
2013-10-15,66,53,49,57,51,48,100,92,71,30.25,30.16,1,0,8,0.00
2013-10-16,52,51,50,51,50,49,100,96,95,30.17,30.12,0,0,0,0.00